Legend — WDF9316 — position and weather

sailwx.info

Track history (hours):
 
Tides and Currents Weather Stations Pressure Air Temp Water Temp Dewpoint Dewpoint Depression Visibility Wind Speed Wind Dir Waves Ship Positions

Legend

More information available from US FCC via Universal Licensing System and Coast Guard Vessel Documentation Center.

Last reported at 2014-Sep-19 19:32 UTC. Time now 2014-Sep-19 19:58 UTC.
Position N 26°06' W 080°07'.

Length 212 m; draft 11.3 m.

Type: Towing. MMSI: 366709000.

Date/timePositionNaut miles runAvg speedWind from/ knotsBaromVisibWave heightAir tempDewpointWater temp
2014-Sep-19 19:32N 26°06' W 080°07'0 0.0
2014-Sep-19 18:32N 26°06' W 080°07'0 0.0
2014-Sep-19 17:32N 26°06' W 080°07'0 0.0
2014-Sep-19 16:32N 26°06' W 080°07'0 0.0
2014-Sep-19 15:32N 26°06' W 080°07'0 0.0
2014-Sep-19 14:32N 26°06' W 080°07'0 0.0
2014-Sep-19 13:23N 26°06' W 080°07'0 0.0
2014-Sep-19 12:26N 26°06' W 080°07'0 0.0
2014-Sep-19 11:26N 26°06' W 080°07'0 0.0
2014-Sep-19 10:26N 26°06' W 080°07'0 0.0
2014-Sep-19 09:29N 26°06' W 080°07'0 0.0
2014-Sep-19 08:29N 26°06' W 080°07'0 0.0
2014-Sep-19 07:33N 26°06' W 080°07'4 4.3
2014-Sep-19 06:33N 26°05' W 080°03'9 9.1
2014-Sep-19 05:33N 25°57' W 080°00'1414.4
2014-Sep-19 04:33N 25°42' W 079°58'  
2014-Sep-10 02:33N 25°31' W 080°01'9 9.4
2014-Sep-10 01:33N 25°40' W 080°01'9 9.0
2014-Sep-10 00:33N 25°49' W 080°01'9 8.9
2014-Sep-09 23:33N 25°58' W 080°01'8 8.5
2014-Sep-09 22:33N 26°05' W 080°05'2 2.3
2014-Sep-09 21:32N 26°06' W 080°07'0 0.0
2014-Sep-09 20:32N 26°06' W 080°07'0 0.0
2014-Sep-09 19:32N 26°06' W 080°07'  
Track history (hours):
 
Tides and Currents Weather Stations Pressure Air Temp Water Temp Dewpoint Dewpoint Depression Visibility Wind Speed Wind Dir Waves Ship Positions

Legend

More information available from US FCC via Universal Licensing System and Coast Guard Vessel Documentation Center.

Last reported at 2014-Sep-19 19:32 UTC. Time now 2014-Sep-19 19:58 UTC.
Position N 26°06' W 080°07'.

Length 212 m; draft 11.3 m.

Type: Towing. MMSI: 366709000.

Date/timePositionNaut miles runAvg speedWind from/ knotsBaromVisibWave heightAir tempDewpointWater temp
2014-Sep-19 19:32N 26°06' W 080°07'0 0.0
2014-Sep-19 18:32N 26°06' W 080°07'0 0.0
2014-Sep-19 17:32N 26°06' W 080°07'0 0.0
2014-Sep-19 16:32N 26°06' W 080°07'0 0.0
2014-Sep-19 15:32N 26°06' W 080°07'0 0.0
2014-Sep-19 14:32N 26°06' W 080°07'0 0.0
2014-Sep-19 13:23N 26°06' W 080°07'0 0.0
2014-Sep-19 12:26N 26°06' W 080°07'0 0.0
2014-Sep-19 11:26N 26°06' W 080°07'0 0.0
2014-Sep-19 10:26N 26°06' W 080°07'0 0.0
2014-Sep-19 09:29N 26°06' W 080°07'0 0.0
2014-Sep-19 08:29N 26°06' W 080°07'0 0.0
2014-Sep-19 07:33N 26°06' W 080°07'4 4.3
2014-Sep-19 06:33N 26°05' W 080°03'9 9.1
2014-Sep-19 05:33N 25°57' W 080°00'1414.4
2014-Sep-19 04:33N 25°42' W 079°58'  
2014-Sep-10 02:33N 25°31' W 080°01'9 9.4
2014-Sep-10 01:33N 25°40' W 080°01'9 9.0
2014-Sep-10 00:33N 25°49' W 080°01'9 8.9
2014-Sep-09 23:33N 25°58' W 080°01'8 8.5
2014-Sep-09 22:33N 26°05' W 080°05'2 2.3
2014-Sep-09 21:32N 26°06' W 080°07'0 0.0
2014-Sep-09 20:32N 26°06' W 080°07'0 0.0
2014-Sep-09 19:32N 26°06' W 080°07'  

Dump ship's entire track history